sensor_id;sensor_type;location;lat;lon;timestamp;P1;durP1;ratioP1;P2;durP2;ratioP2
2548;SDS011;1284;53.520;10.248;2024-02-21T00:00:05;18.20;;;5.05;;
2548;SDS011;1284;53.520;10.248;2024-02-21T00:02:31;12.48;;;4.50;;
2548;SDS011;1284;53.520;10.248;2024-02-21T00:04:56;18.17;;;5.10;;
2548;SDS011;1284;53.520;10.248;2024-02-21T00:07:21;9.65;;;4.30;;
2548;SDS011;1284;53.520;10.248;2024-02-21T00:09:47;14.90;;;5.22;;
2548;SDS011;1284;53.520;10.248;2024-02-21T00:12:13;18.30;;;5.10;;
2548;SDS011;1284;53.520;10.248;2024-02-21T00:14:39;8.98;;;4.40;;
2548;SDS011;1284;53.520;10.248;2024-02-21T00:17:05;10.70;;;4.15;;
2548;SDS011;1284;53.520;10.248;2024-02-21T00:19:31;14.55;;;4.75;;
2548;SDS011;1284;53.520;10.248;2024-02-21T00:21:56;17.38;;;5.30;;
2548;SDS011;1284;53.520;10.248;2024-02-21T00:24:22;10.18;;;3.80;;
2548;SDS011;1284;53.520;10.248;2024-02-21T00:26:47;10.07;;;4.57;;
2548;SDS011;1284;53.520;10.248;2024-02-21T00:29:12;14.02;;;5.10;;
2548;SDS011;1284;53.520;10.248;2024-02-21T00:31:38;14.10;;;4.53;;
2548;SDS011;1284;53.520;10.248;2024-02-21T00:34:03;11.32;;;4.03;;
2548;SDS011;1284;53.520;10.248;2024-02-21T00:36:29;10.82;;;4.43;;
2548;SDS011;1284;53.520;10.248;2024-02-21T00:38:54;12.45;;;3.88;;
2548;SDS011;1284;53.520;10.248;2024-02-21T00:41:19;11.05;;;4.35;;
2548;SDS011;1284;53.520;10.248;2024-02-21T00:43:45;14.18;;;5.25;;
2548;SDS011;1284;53.520;10.248;2024-02-21T00:46:10;15.98;;;5.60;;
2548;SDS011;1284;53.520;10.248;2024-02-21T00:48:36;10.15;;;3.85;;
2548;SDS011;1284;53.520;10.248;2024-02-21T00:51:01;9.90;;;4.13;;
2548;SDS011;1284;53.520;10.248;2024-02-21T00:53:27;13.43;;;4.30;;
2548;SDS011;1284;53.520;10.248;2024-02-21T00:55:52;10.93;;;4.28;;
2548;SDS011;1284;53.520;10.248;2024-02-21T00:58:18;10.65;;;4.30;;
2548;SDS011;1284;53.520;10.248;2024-02-21T01:00:43;10.05;;;4.10;;
2548;SDS011;1284;53.520;10.248;2024-02-21T01:03:09;23.73;;;4.88;;
2548;SDS011;1284;53.520;10.248;2024-02-21T01:05:35;11.65;;;4.15;;
2548;SDS011;1284;53.520;10.248;2024-02-21T01:08:00;8.90;;;3.25;;
2548;SDS011;1284;53.520;10.248;2024-02-21T01:10:25;11.45;;;5.13;;
2548;SDS011;1284;53.520;10.248;2024-02-21T01:12:51;11.15;;;4.72;;
2548;SDS011;1284;53.520;10.248;2024-02-21T01:15:16;12.25;;;4.95;;
2548;SDS011;1284;53.520;10.248;2024-02-21T01:17:42;15.75;;;5.05;;
2548;SDS011;1284;53.520;10.248;2024-02-21T01:20:07;9.65;;;4.80;;
2548;SDS011;1284;53.520;10.248;2024-02-21T01:22:33;13.77;;;5.20;;
2548;SDS011;1284;53.520;10.248;2024-02-21T01:24:59;11.68;;;4.53;;
2548;SDS011;1284;53.520;10.248;2024-02-21T01:27:27;13.25;;;4.43;;
2548;SDS011;1284;53.520;10.248;2024-02-21T01:29:53;14.25;;;4.60;;
2548;SDS011;1284;53.520;10.248;2024-02-21T01:32:18;14.38;;;5.60;;
2548;SDS011;1284;53.520;10.248;2024-02-21T01:34:43;12.40;;;5.10;;
2548;SDS011;1284;53.520;10.248;2024-02-21T01:37:09;14.30;;;5.38;;
2548;SDS011;1284;53.520;10.248;2024-02-21T01:39:34;13.65;;;5.45;;
2548;SDS011;1284;53.520;10.248;2024-02-21T01:42:00;11.02;;;4.65;;
2548;SDS011;1284;53.520;10.248;2024-02-21T01:44:26;16.45;;;4.97;;
2548;SDS011;1284;53.520;10.248;2024-02-21T01:46:52;13.52;;;5.32;;
2548;SDS011;1284;53.520;10.248;2024-02-21T01:49:18;11.43;;;4.47;;
2548;SDS011;1284;53.520;10.248;2024-02-21T01:51:45;15.27;;;5.75;;
2548;SDS011;1284;53.520;10.248;2024-02-21T01:54:13;13.65;;;4.68;;
2548;SDS011;1284;53.520;10.248;2024-02-21T01:56:40;12.32;;;5.32;;
2548;SDS011;1284;53.520;10.248;2024-02-21T01:59:07;18.23;;;5.40;;
2548;SDS011;1284;53.520;10.248;2024-02-21T02:01:33;11.10;;;4.72;;
2548;SDS011;1284;53.520;10.248;2024-02-21T02:03:59;13.05;;;4.93;;
2548;SDS011;1284;53.520;10.248;2024-02-21T02:06:24;13.52;;;5.13;;
2548;SDS011;1284;53.520;10.248;2024-02-21T02:08:50;9.85;;;5.10;;
2548;SDS011;1284;53.520;10.248;2024-02-21T02:11:16;12.52;;;5.30;;
2548;SDS011;1284;53.520;10.248;2024-02-21T02:13:42;14.95;;;4.93;;
2548;SDS011;1284;53.520;10.248;2024-02-21T02:16:07;11.63;;;4.63;;
2548;SDS011;1284;53.520;10.248;2024-02-21T02:18:33;12.13;;;4.63;;
2548;SDS011;1284;53.520;10.248;2024-02-21T02:21:04;12.73;;;5.18;;
2548;SDS011;1284;53.520;10.248;2024-02-21T02:23:33;12.10;;;5.20;;
2548;SDS011;1284;53.520;10.248;2024-02-21T02:25:59;11.18;;;4.60;;
2548;SDS011;1284;53.520;10.248;2024-02-21T02:28:26;13.15;;;4.07;;
2548;SDS011;1284;53.520;10.248;2024-02-21T02:30:52;16.05;;;5.32;;
2548;SDS011;1284;53.520;10.248;2024-02-21T02:33:17;15.05;;;4.65;;
2548;SDS011;1284;53.520;10.248;2024-02-21T02:35:43;9.23;;;4.63;;
2548;SDS011;1284;53.520;10.248;2024-02-21T02:38:09;19.90;;;5.97;;
2548;SDS011;1284;53.520;10.248;2024-02-21T02:40:35;22.35;;;5.43;;
2548;SDS011;1284;53.520;10.248;2024-02-21T02:43:01;16.75;;;5.82;;
2548;SDS011;1284;53.520;10.248;2024-02-21T02:45:27;12.43;;;5.18;;
2548;SDS011;1284;53.520;10.248;2024-02-21T02:47:53;16.35;;;5.82;;
2548;SDS011;1284;53.520;10.248;2024-02-21T02:50:19;13.57;;;5.63;;
2548;SDS011;1284;53.520;10.248;2024-02-21T02:52:45;15.68;;;5.72;;
2548;SDS011;1284;53.520;10.248;2024-02-21T02:55:10;17.13;;;6.85;;
2548;SDS011;1284;53.520;10.248;2024-02-21T02:57:36;15.80;;;6.82;;
2548;SDS011;1284;53.520;10.248;2024-02-21T03:00:01;17.60;;;6.03;;
2548;SDS011;1284;53.520;10.248;2024-02-21T03:02:28;15.98;;;6.07;;
2548;SDS011;1284;53.520;10.248;2024-02-21T03:04:53;16.63;;;5.50;;
2548;SDS011;1284;53.520;10.248;2024-02-21T03:07:20;19.70;;;6.65;;
2548;SDS011;1284;53.520;10.248;2024-02-21T03:09:45;12.43;;;5.85;;
2548;SDS011;1284;53.520;10.248;2024-02-21T03:12:11;15.10;;;5.38;;
2548;SDS011;1284;53.520;10.248;2024-02-21T03:14:36;17.65;;;6.50;;
2548;SDS011;1284;53.520;10.248;2024-02-21T03:17:02;16.35;;;6.57;;
2548;SDS011;1284;53.520;10.248;2024-02-21T03:19:28;15.38;;;5.35;;
2548;SDS011;1284;53.520;10.248;2024-02-21T03:21:54;17.13;;;7.10;;
2548;SDS011;1284;53.520;10.248;2024-02-21T03:24:20;14.18;;;5.78;;
2548;SDS011;1284;53.520;10.248;2024-02-21T03:26:46;18.00;;;6.25;;
2548;SDS011;1284;53.520;10.248;2024-02-21T03:29:16;14.45;;;6.53;;
2548;SDS011;1284;53.520;10.248;2024-02-21T03:31:42;18.50;;;5.65;;
2548;SDS011;1284;53.520;10.248;2024-02-21T03:34:09;13.00;;;5.78;;
2548;SDS011;1284;53.520;10.248;2024-02-21T03:36:36;16.73;;;6.60;;
2548;SDS011;1284;53.520;10.248;2024-02-21T03:39:01;15.13;;;6.20;;
2548;SDS011;1284;53.520;10.248;2024-02-21T03:41:27;16.58;;;5.75;;
2548;SDS011;1284;53.520;10.248;2024-02-21T03:43:52;13.98;;;6.35;;
2548;SDS011;1284;53.520;10.248;2024-02-21T03:46:18;17.02;;;6.60;;
2548;SDS011;1284;53.520;10.248;2024-02-21T03:48:43;22.75;;;6.47;;
2548;SDS011;1284;53.520;10.248;2024-02-21T03:51:10;13.65;;;6.10;;
2548;SDS011;1284;53.520;10.248;2024-02-21T03:53:36;18.58;;;6.13;;
2548;SDS011;1284;53.520;10.248;2024-02-21T03:56:01;12.68;;;5.03;;
2548;SDS011;1284;53.520;10.248;2024-02-21T03:58:29;14.02;;;6.18;;
2548;SDS011;1284;53.520;10.248;2024-02-21T04:00:55;12.13;;;4.97;;
2548;SDS011;1284;53.520;10.248;2024-02-21T04:03:21;13.95;;;6.47;;
2548;SDS011;1284;53.520;10.248;2024-02-21T04:05:46;11.40;;;5.40;;
2548;SDS011;1284;53.520;10.248;2024-02-21T04:08:12;14.07;;;5.47;;
2548;SDS011;1284;53.520;10.248;2024-02-21T04:10:37;16.92;;;6.43;;
2548;SDS011;1284;53.520;10.248;2024-02-21T04:13:03;15.55;;;5.28;;
2548;SDS011;1284;53.520;10.248;2024-02-21T04:15:30;16.52;;;6.18;;
2548;SDS011;1284;53.520;10.248;2024-02-21T04:17:55;13.20;;;6.15;;
2548;SDS011;1284;53.520;10.248;2024-02-21T04:20:21;14.45;;;5.80;;
2548;SDS011;1284;53.520;10.248;2024-02-21T04:22:47;13.88;;;6.03;;
2548;SDS011;1284;53.520;10.248;2024-02-21T04:25:12;15.73;;;6.43;;
2548;SDS011;1284;53.520;10.248;2024-02-21T04:27:38;12.52;;;4.82;;
2548;SDS011;1284;53.520;10.248;2024-02-21T04:30:04;14.23;;;5.43;;
2548;SDS011;1284;53.520;10.248;2024-02-21T04:32:30;16.08;;;6.10;;
2548;SDS011;1284;53.520;10.248;2024-02-21T04:34:55;16.63;;;5.82;;
2548;SDS011;1284;53.520;10.248;2024-02-21T04:37:21;14.30;;;5.60;;
2548;SDS011;1284;53.520;10.248;2024-02-21T04:39:48;15.23;;;5.90;;
2548;SDS011;1284;53.520;10.248;2024-02-21T04:42:14;11.43;;;5.78;;
2548;SDS011;1284;53.520;10.248;2024-02-21T04:44:39;13.02;;;5.35;;
2548;SDS011;1284;53.520;10.248;2024-02-21T04:47:05;14.48;;;6.28;;
2548;SDS011;1284;53.520;10.248;2024-02-21T04:49:30;15.35;;;6.53;;
2548;SDS011;1284;53.520;10.248;2024-02-21T04:51:56;18.83;;;5.82;;
2548;SDS011;1284;53.520;10.248;2024-02-21T04:54:21;11.07;;;5.65;;
2548;SDS011;1284;53.520;10.248;2024-02-21T04:56:46;14.05;;;6.05;;
2548;SDS011;1284;53.520;10.248;2024-02-21T04:59:12;22.60;;;6.75;;
2548;SDS011;1284;53.520;10.248;2024-02-21T05:01:37;17.15;;;5.88;;
2548;SDS011;1284;53.520;10.248;2024-02-21T05:04:06;13.75;;;4.97;;
2548;SDS011;1284;53.520;10.248;2024-02-21T05:06:31;12.95;;;5.43;;
2548;SDS011;1284;53.520;10.248;2024-02-21T05:09:00;13.07;;;4.90;;
2548;SDS011;1284;53.520;10.248;2024-02-21T05:11:25;11.88;;;5.38;;
2548;SDS011;1284;53.520;10.248;2024-02-21T05:13:51;15.10;;;5.65;;
2548;SDS011;1284;53.520;10.248;2024-02-21T05:16:16;18.10;;;5.72;;
2548;SDS011;1284;53.520;10.248;2024-02-21T05:18:42;17.60;;;5.35;;
2548;SDS011;1284;53.520;10.248;2024-02-21T05:21:08;11.70;;;4.95;;
2548;SDS011;1284;53.520;10.248;2024-02-21T05:23:34;10.80;;;4.70;;
2548;SDS011;1284;53.520;10.248;2024-02-21T05:25:59;10.32;;;4.57;;
2548;SDS011;1284;53.520;10.248;2024-02-21T05:28:24;16.08;;;5.50;;
2548;SDS011;1284;53.520;10.248;2024-02-21T05:30:50;14.82;;;4.53;;
2548;SDS011;1284;53.520;10.248;2024-02-21T05:33:16;10.23;;;4.40;;
2548;SDS011;1284;53.520;10.248;2024-02-21T05:35:46;12.05;;;5.07;;
2548;SDS011;1284;53.520;10.248;2024-02-21T05:38:13;10.48;;;4.45;;
2548;SDS011;1284;53.520;10.248;2024-02-21T05:40:38;8.95;;;4.30;;
2548;SDS011;1284;53.520;10.248;2024-02-21T05:43:04;14.70;;;5.57;;
2548;SDS011;1284;53.520;10.248;2024-02-21T05:45:29;8.90;;;4.28;;
2548;SDS011;1284;53.520;10.248;2024-02-21T05:47:55;11.52;;;4.32;;
2548;SDS011;1284;53.520;10.248;2024-02-21T05:50:22;8.20;;;3.30;;
2548;SDS011;1284;53.520;10.248;2024-02-21T05:52:51;8.20;;;3.70;;
2548;SDS011;1284;53.520;10.248;2024-02-21T05:55:16;8.77;;;3.83;;
2548;SDS011;1284;53.520;10.248;2024-02-21T05:57:42;9.38;;;3.63;;
2548;SDS011;1284;53.520;10.248;2024-02-21T06:00:08;8.13;;;3.67;;
2548;SDS011;1284;53.520;10.248;2024-02-21T06:02:40;8.13;;;4.18;;
2548;SDS011;1284;53.520;10.248;2024-02-21T06:05:06;6.75;;;3.38;;
2548;SDS011;1284;53.520;10.248;2024-02-21T06:07:32;6.47;;;3.38;;
2548;SDS011;1284;53.520;10.248;2024-02-21T06:09:59;7.15;;;3.60;;
2548;SDS011;1284;53.520;10.248;2024-02-21T06:12:25;7.72;;;2.85;;
2548;SDS011;1284;53.520;10.248;2024-02-21T06:14:51;4.82;;;2.42;;
2548;SDS011;1284;53.520;10.248;2024-02-21T06:17:17;7.20;;;3.05;;
2548;SDS011;1284;53.520;10.248;2024-02-21T06:19:43;8.13;;;3.72;;
2548;SDS011;1284;53.520;10.248;2024-02-21T06:22:10;4.43;;;2.47;;
2548;SDS011;1284;53.520;10.248;2024-02-21T06:24:35;4.97;;;2.67;;
2548;SDS011;1284;53.520;10.248;2024-02-21T06:27:02;4.43;;;2.50;;
2548;SDS011;1284;53.520;10.248;2024-02-21T06:29:34;6.07;;;2.60;;
2548;SDS011;1284;53.520;10.248;2024-02-21T06:32:00;5.10;;;2.67;;
2548;SDS011;1284;53.520;10.248;2024-02-21T06:34:26;6.32;;;2.97;;
2548;SDS011;1284;53.520;10.248;2024-02-21T06:36:54;6.28;;;2.58;;
2548;SDS011;1284;53.520;10.248;2024-02-21T06:39:20;2.90;;;2.40;;
2548;SDS011;1284;53.520;10.248;2024-02-21T06:41:47;3.78;;;2.22;;
2548;SDS011;1284;53.520;10.248;2024-02-21T06:44:13;4.78;;;2.38;;
2548;SDS011;1284;53.520;10.248;2024-02-21T06:46:38;5.03;;;2.55;;
2548;SDS011;1284;53.520;10.248;2024-02-21T06:49:04;4.82;;;2.20;;
2548;SDS011;1284;53.520;10.248;2024-02-21T06:51:29;5.38;;;2.25;;
2548;SDS011;1284;53.520;10.248;2024-02-21T06:53:55;2.75;;;1.70;;
2548;SDS011;1284;53.520;10.248;2024-02-21T06:56:24;4.75;;;2.80;;
2548;SDS011;1284;53.520;10.248;2024-02-21T06:58:56;5.50;;;2.53;;
2548;SDS011;1284;53.520;10.248;2024-02-21T07:01:22;5.78;;;2.33;;
2548;SDS011;1284;53.520;10.248;2024-02-21T07:03:48;5.70;;;2.17;;
2548;SDS011;1284;53.520;10.248;2024-02-21T07:06:14;4.13;;;2.45;;
2548;SDS011;1284;53.520;10.248;2024-02-21T07:08:39;3.85;;;2.17;;
2548;SDS011;1284;53.520;10.248;2024-02-21T07:11:05;7.30;;;2.50;;
2548;SDS011;1284;53.520;10.248;2024-02-21T07:13:32;2.53;;;2.08;;
2548;SDS011;1284;53.520;10.248;2024-02-21T07:15:57;6.55;;;2.10;;
2548;SDS011;1284;53.520;10.248;2024-02-21T07:18:23;3.50;;;1.65;;
2548;SDS011;1284;53.520;10.248;2024-02-21T07:20:50;4.03;;;2.03;;
2548;SDS011;1284;53.520;10.248;2024-02-21T07:23:16;4.93;;;2.05;;
2548;SDS011;1284;53.520;10.248;2024-02-21T07:25:42;4.78;;;2.42;;
2548;SDS011;1284;53.520;10.248;2024-02-21T07:28:07;3.50;;;1.60;;
2548;SDS011;1284;53.520;10.248;2024-02-21T07:30:33;5.03;;;2.22;;
2548;SDS011;1284;53.520;10.248;2024-02-21T07:32:59;4.32;;;2.20;;
2548;SDS011;1284;53.520;10.248;2024-02-21T07:35:24;2.92;;;1.58;;
2548;SDS011;1284;53.520;10.248;2024-02-21T07:37:49;4.50;;;2.15;;
2548;SDS011;1284;53.520;10.248;2024-02-21T07:40:15;2.55;;;1.80;;
2548;SDS011;1284;53.520;10.248;2024-02-21T07:42:42;3.47;;;1.77;;
2548;SDS011;1284;53.520;10.248;2024-02-21T07:45:08;4.32;;;1.95;;
2548;SDS011;1284;53.520;10.248;2024-02-21T07:47:34;4.78;;;2.30;;
2548;SDS011;1284;53.520;10.248;2024-02-21T07:50:01;3.53;;;1.98;;
2548;SDS011;1284;53.520;10.248;2024-02-21T07:52:27;2.72;;;1.73;;
2548;SDS011;1284;53.520;10.248;2024-02-21T07:54:52;6.38;;;1.90;;
2548;SDS011;1284;53.520;10.248;2024-02-21T07:57:18;4.10;;;2.50;;
2548;SDS011;1284;53.520;10.248;2024-02-21T07:59:43;6.97;;;2.88;;
2548;SDS011;1284;53.520;10.248;2024-02-21T08:02:09;4.43;;;2.20;;
2548;SDS011;1284;53.520;10.248;2024-02-21T08:04:35;3.03;;;1.92;;
2548;SDS011;1284;53.520;10.248;2024-02-21T08:07:00;3.95;;;2.17;;
2548;SDS011;1284;53.520;10.248;2024-02-21T08:09:28;4.25;;;2.15;;
2548;SDS011;1284;53.520;10.248;2024-02-21T08:11:54;3.35;;;2.10;;
2548;SDS011;1284;53.520;10.248;2024-02-21T08:14:20;3.15;;;1.80;;
2548;SDS011;1284;53.520;10.248;2024-02-21T08:16:46;3.22;;;1.73;;
2548;SDS011;1284;53.520;10.248;2024-02-21T08:19:11;3.90;;;1.92;;
2548;SDS011;1284;53.520;10.248;2024-02-21T08:21:37;3.42;;;1.98;;
2548;SDS011;1284;53.520;10.248;2024-02-21T08:24:02;4.35;;;2.00;;
2548;SDS011;1284;53.520;10.248;2024-02-21T08:26:28;2.35;;;1.40;;
2548;SDS011;1284;53.520;10.248;2024-02-21T08:28:58;2.97;;;1.67;;
2548;SDS011;1284;53.520;10.248;2024-02-21T08:31:25;2.95;;;1.40;;
2548;SDS011;1284;53.520;10.248;2024-02-21T08:33:57;2.30;;;1.30;;
2548;SDS011;1284;53.520;10.248;2024-02-21T08:38:57;1.85;;;1.23;;
2548;SDS011;1284;53.520;10.248;2024-02-21T08:41:23;2.35;;;1.50;;
2548;SDS011;1284;53.520;10.248;2024-02-21T08:43:50;1.65;;;1.10;;
2548;SDS011;1284;53.520;10.248;2024-02-21T08:46:16;3.15;;;1.48;;
2548;SDS011;1284;53.520;10.248;2024-02-21T08:48:42;2.90;;;1.40;;
2548;SDS011;1284;53.520;10.248;2024-02-21T08:51:11;2.60;;;1.25;;
2548;SDS011;1284;53.520;10.248;2024-02-21T08:53:36;4.25;;;1.20;;
2548;SDS011;1284;53.520;10.248;2024-02-21T08:56:03;2.50;;;1.30;;
2548;SDS011;1284;53.520;10.248;2024-02-21T08:58:29;1.80;;;1.05;;
2548;SDS011;1284;53.520;10.248;2024-02-21T09:00:54;1.90;;;1.10;;
2548;SDS011;1284;53.520;10.248;2024-02-21T09:03:20;7.95;;;1.45;;
2548;SDS011;1284;53.520;10.248;2024-02-21T09:05:45;2.00;;;1.10;;
2548;SDS011;1284;53.520;10.248;2024-02-21T09:08:12;1.23;;;1.02;;
2548;SDS011;1284;53.520;10.248;2024-02-21T09:10:38;3.83;;;1.27;;
2548;SDS011;1284;53.520;10.248;2024-02-21T09:13:05;8.05;;;1.10;;
2548;SDS011;1284;53.520;10.248;2024-02-21T09:15:31;1.60;;;1.20;;
2548;SDS011;1284;53.520;10.248;2024-02-21T09:17:57;2.03;;;1.13;;
2548;SDS011;1284;53.520;10.248;2024-02-21T09:20:22;7.45;;;1.50;;
2548;SDS011;1284;53.520;10.248;2024-02-21T09:22:48;5.47;;;1.13;;
2548;SDS011;1284;53.520;10.248;2024-02-21T09:25:13;3.97;;;1.20;;
2548;SDS011;1284;53.520;10.248;2024-02-21T09:27:39;2.80;;;2.45;;
2548;SDS011;1284;53.520;10.248;2024-02-21T09:30:05;1.85;;;1.70;;
2548;SDS011;1284;53.520;10.248;2024-02-21T09:32:31;2.75;;;1.20;;
2548;SDS011;1284;53.520;10.248;2024-02-21T09:34:58;5.88;;;1.45;;
2548;SDS011;1284;53.520;10.248;2024-02-21T09:37:23;3.67;;;1.23;;
2548;SDS011;1284;53.520;10.248;2024-02-21T09:39:49;4.13;;;1.30;;
2548;SDS011;1284;53.520;10.248;2024-02-21T09:42:16;3.08;;;1.05;;
2548;SDS011;1284;53.520;10.248;2024-02-21T09:44:45;8.10;;;1.48;;
2548;SDS011;1284;53.520;10.248;2024-02-21T09:47:18;3.20;;;0.98;;
2548;SDS011;1284;53.520;10.248;2024-02-21T09:49:47;3.35;;;1.15;;
2548;SDS011;1284;53.520;10.248;2024-02-21T09:52:13;1.88;;;1.33;;
2548;SDS011;1284;53.520;10.248;2024-02-21T09:54:40;1.88;;;1.15;;
2548;SDS011;1284;53.520;10.248;2024-02-21T09:57:09;1.45;;;1.13;;
2548;SDS011;1284;53.520;10.248;2024-02-21T09:59:35;4.22;;;1.50;;
2548;SDS011;1284;53.520;10.248;2024-02-21T10:02:01;1.73;;;1.20;;
2548;SDS011;1284;53.520;10.248;2024-02-21T10:04:26;1.67;;;1.23;;
2548;SDS011;1284;53.520;10.248;2024-02-21T10:06:53;1.63;;;0.77;;
2548;SDS011;1284;53.520;10.248;2024-02-21T10:09:25;1.55;;;1.15;;
2548;SDS011;1284;53.520;10.248;2024-02-21T10:11:55;1.38;;;1.08;;
2548;SDS011;1284;53.520;10.248;2024-02-21T10:14:21;3.05;;;0.93;;
2548;SDS011;1284;53.520;10.248;2024-02-21T10:16:48;2.70;;;1.45;;
2548;SDS011;1284;53.520;10.248;2024-02-21T10:19:18;1.88;;;1.30;;
2548;SDS011;1284;53.520;10.248;2024-02-21T10:21:44;3.03;;;1.33;;
2548;SDS011;1284;53.520;10.248;2024-02-21T10:24:10;4.63;;;1.52;;
2548;SDS011;1284;53.520;10.248;2024-02-21T10:26:37;2.58;;;1.50;;
2548;SDS011;1284;53.520;10.248;2024-02-21T10:29:03;3.47;;;1.35;;
2548;SDS011;1284;53.520;10.248;2024-02-21T10:31:29;2.03;;;1.33;;
2548;SDS011;1284;53.520;10.248;2024-02-21T10:36:24;5.40;;;2.17;;
2548;SDS011;1284;53.520;10.248;2024-02-21T10:38:50;6.75;;;2.17;;
2548;SDS011;1284;53.520;10.248;2024-02-21T10:41:16;4.97;;;2.40;;
2548;SDS011;1284;53.520;10.248;2024-02-21T10:43:46;6.13;;;2.47;;
2548;SDS011;1284;53.520;10.248;2024-02-21T10:48:44;5.80;;;2.40;;
2548;SDS011;1284;53.520;10.248;2024-02-21T10:51:15;6.57;;;2.85;;
2548;SDS011;1284;53.520;10.248;2024-02-21T10:56:30;6.57;;;2.90;;
2548;SDS011;1284;53.520;10.248;2024-02-21T10:59:01;8.65;;;3.38;;
2548;SDS011;1284;53.520;10.248;2024-02-21T11:01:30;7.35;;;4.10;;
2548;SDS011;1284;53.520;10.248;2024-02-21T11:03:58;8.15;;;2.85;;
2548;SDS011;1284;53.520;10.248;2024-02-21T11:06:25;9.38;;;3.95;;
2548;SDS011;1284;53.520;10.248;2024-02-21T11:09:06;5.25;;;2.85;;
2548;SDS011;1284;53.520;10.248;2024-02-21T11:14:06;7.93;;;3.88;;
2548;SDS011;1284;53.520;10.248;2024-02-21T11:16:44;11.95;;;3.92;;
2548;SDS011;1284;53.520;10.248;2024-02-21T11:19:23;6.93;;;3.42;;
2548;SDS011;1284;53.520;10.248;2024-02-21T11:21:51;9.10;;;3.45;;
2548;SDS011;1284;53.520;10.248;2024-02-21T11:24:33;6.28;;;3.35;;
2548;SDS011;1284;53.520;10.248;2024-02-21T11:29:40;5.05;;;2.50;;
2548;SDS011;1284;53.520;10.248;2024-02-21T11:32:15;7.15;;;3.60;;
2548;SDS011;1284;53.520;10.248;2024-02-21T11:34:53;8.57;;;4.25;;
2548;SDS011;1284;53.520;10.248;2024-02-21T11:37:23;8.13;;;3.40;;
2548;SDS011;1284;53.520;10.248;2024-02-21T11:39:50;6.20;;;3.10;;
2548;SDS011;1284;53.520;10.248;2024-02-21T11:42:18;7.05;;;3.55;;
2548;SDS011;1284;53.520;10.248;2024-02-21T11:44:43;8.00;;;3.13;;
2548;SDS011;1284;53.520;10.248;2024-02-21T11:47:09;7.45;;;3.17;;
2548;SDS011;1284;53.520;10.248;2024-02-21T11:49:36;6.45;;;3.25;;
2548;SDS011;1284;53.520;10.248;2024-02-21T11:52:03;5.07;;;2.65;;
2548;SDS011;1284;53.520;10.248;2024-02-21T11:54:32;6.60;;;3.13;;
2548;SDS011;1284;53.520;10.248;2024-02-21T11:56:59;8.32;;;3.75;;
2548;SDS011;1284;53.520;10.248;2024-02-21T11:59:25;7.93;;;3.05;;
2548;SDS011;1284;53.520;10.248;2024-02-21T12:01:52;5.90;;;2.67;;
2548;SDS011;1284;53.520;10.248;2024-02-21T12:04:18;4.00;;;2.40;;
2548;SDS011;1284;53.520;10.248;2024-02-21T12:06:49;7.25;;;3.00;;
2548;SDS011;1284;53.520;10.248;2024-02-21T12:09:17;5.47;;;2.63;;
2548;SDS011;1284;53.520;10.248;2024-02-21T12:11:43;6.55;;;3.15;;
2548;SDS011;1284;53.520;10.248;2024-02-21T12:14:10;7.10;;;3.30;;
2548;SDS011;1284;53.520;10.248;2024-02-21T12:16:36;5.15;;;2.97;;
2548;SDS011;1284;53.520;10.248;2024-02-21T12:19:04;5.95;;;2.67;;
2548;SDS011;1284;53.520;10.248;2024-02-21T12:21:30;7.75;;;3.05;;
2548;SDS011;1284;53.520;10.248;2024-02-21T12:24:00;6.35;;;2.72;;
2548;SDS011;1284;53.520;10.248;2024-02-21T12:26:40;7.75;;;3.17;;
2548;SDS011;1284;53.520;10.248;2024-02-21T12:29:05;9.20;;;3.67;;
2548;SDS011;1284;53.520;10.248;2024-02-21T12:31:31;4.18;;;2.35;;
2548;SDS011;1284;53.520;10.248;2024-02-21T12:33:56;8.93;;;2.88;;
2548;SDS011;1284;53.520;10.248;2024-02-21T12:36:22;7.38;;;3.05;;
2548;SDS011;1284;53.520;10.248;2024-02-21T12:38:47;9.52;;;3.42;;
2548;SDS011;1284;53.520;10.248;2024-02-21T12:41:14;6.07;;;2.53;;
2548;SDS011;1284;53.520;10.248;2024-02-21T12:43:40;9.95;;;3.15;;
2548;SDS011;1284;53.520;10.248;2024-02-21T12:46:05;7.63;;;3.00;;
2548;SDS011;1284;53.520;10.248;2024-02-21T12:48:33;11.55;;;3.88;;
2548;SDS011;1284;53.520;10.248;2024-02-21T12:50:59;8.43;;;3.03;;
2548;SDS011;1284;53.520;10.248;2024-02-21T12:53:24;13.38;;;3.85;;
2548;SDS011;1284;53.520;10.248;2024-02-21T12:55:50;5.63;;;2.88;;
2548;SDS011;1284;53.520;10.248;2024-02-21T12:58:15;8.50;;;3.70;;
2548;SDS011;1284;53.520;10.248;2024-02-21T13:00:41;9.52;;;3.30;;
2548;SDS011;1284;53.520;10.248;2024-02-21T13:03:07;8.57;;;3.65;;
2548;SDS011;1284;53.520;10.248;2024-02-21T13:05:35;9.43;;;4.10;;
2548;SDS011;1284;53.520;10.248;2024-02-21T13:08:01;6.72;;;3.40;;
2548;SDS011;1284;53.520;10.248;2024-02-21T13:10:26;8.23;;;3.63;;
2548;SDS011;1284;53.520;10.248;2024-02-21T13:12:52;10.15;;;4.05;;
2548;SDS011;1284;53.520;10.248;2024-02-21T13:15:17;8.90;;;3.83;;
2548;SDS011;1284;53.520;10.248;2024-02-21T13:17:43;10.40;;;4.43;;
2548;SDS011;1284;53.520;10.248;2024-02-21T13:20:09;8.80;;;4.30;;
2548;SDS011;1284;53.520;10.248;2024-02-21T13:22:36;7.07;;;3.92;;
2548;SDS011;1284;53.520;10.248;2024-02-21T13:25:02;10.90;;;5.28;;
2548;SDS011;1284;53.520;10.248;2024-02-21T13:27:28;11.88;;;4.88;;
2548;SDS011;1284;53.520;10.248;2024-02-21T13:29:54;7.70;;;4.18;;
2548;SDS011;1284;53.520;10.248;2024-02-21T13:32:19;10.88;;;4.63;;
2548;SDS011;1284;53.520;10.248;2024-02-21T13:34:45;14.63;;;4.35;;
2548;SDS011;1284;53.520;10.248;2024-02-21T13:37:10;11.38;;;4.65;;
2548;SDS011;1284;53.520;10.248;2024-02-21T13:39:36;10.65;;;4.32;;
2548;SDS011;1284;53.520;10.248;2024-02-21T13:42:02;11.82;;;4.78;;
2548;SDS011;1284;53.520;10.248;2024-02-21T13:44:31;8.68;;;4.15;;
2548;SDS011;1284;53.520;10.248;2024-02-21T13:46:59;9.10;;;4.43;;
2548;SDS011;1284;53.520;10.248;2024-02-21T13:49:25;12.30;;;4.95;;
2548;SDS011;1284;53.520;10.248;2024-02-21T13:51:51;12.13;;;4.20;;
2548;SDS011;1284;53.520;10.248;2024-02-21T13:54:17;9.70;;;4.47;;
2548;SDS011;1284;53.520;10.248;2024-02-21T13:56:44;8.82;;;4.20;;
2548;SDS011;1284;53.520;10.248;2024-02-21T13:59:11;12.10;;;5.00;;
2548;SDS011;1284;53.520;10.248;2024-02-21T14:01:38;7.28;;;3.95;;
2548;SDS011;1284;53.520;10.248;2024-02-21T14:04:04;11.38;;;4.50;;
2548;SDS011;1284;53.520;10.248;2024-02-21T14:06:30;11.30;;;4.70;;
2548;SDS011;1284;53.520;10.248;2024-02-21T14:08:55;13.80;;;5.20;;
2548;SDS011;1284;53.520;10.248;2024-02-21T14:11:21;10.45;;;5.10;;
2548;SDS011;1284;53.520;10.248;2024-02-21T14:13:46;14.77;;;4.15;;
2548;SDS011;1284;53.520;10.248;2024-02-21T14:16:12;9.15;;;4.40;;
2548;SDS011;1284;53.520;10.248;2024-02-21T14:18:40;11.40;;;4.68;;
2548;SDS011;1284;53.520;10.248;2024-02-21T14:21:10;10.40;;;4.85;;
2548;SDS011;1284;53.520;10.248;2024-02-21T14:23:37;11.10;;;4.90;;
2548;SDS011;1284;53.520;10.248;2024-02-21T14:26:03;8.10;;;3.67;;
2548;SDS011;1284;53.520;10.248;2024-02-21T14:28:29;11.13;;;5.32;;
2548;SDS011;1284;53.520;10.248;2024-02-21T14:30:55;12.02;;;5.18;;
2548;SDS011;1284;53.520;10.248;2024-02-21T14:33:28;14.57;;;4.22;;
2548;SDS011;1284;53.520;10.248;2024-02-21T14:35:55;10.48;;;5.03;;
2548;SDS011;1284;53.520;10.248;2024-02-21T14:38:21;11.55;;;4.75;;
2548;SDS011;1284;53.520;10.248;2024-02-21T14:40:47;13.00;;;5.25;;
2548;SDS011;1284;53.520;10.248;2024-02-21T14:43:13;12.98;;;4.72;;
2548;SDS011;1284;53.520;10.248;2024-02-21T14:45:39;12.35;;;4.47;;
2548;SDS011;1284;53.520;10.248;2024-02-21T14:48:05;12.40;;;4.95;;
2548;SDS011;1284;53.520;10.248;2024-02-21T14:50:31;10.65;;;4.28;;
2548;SDS011;1284;53.520;10.248;2024-02-21T14:52:57;11.02;;;4.47;;
2548;SDS011;1284;53.520;10.248;2024-02-21T14:55:22;12.02;;;4.03;;
2548;SDS011;1284;53.520;10.248;2024-02-21T14:57:49;14.15;;;4.72;;
2548;SDS011;1284;53.520;10.248;2024-02-21T15:00:14;10.20;;;4.03;;
2548;SDS011;1284;53.520;10.248;2024-02-21T15:02:40;6.55;;;3.65;;
2548;SDS011;1284;53.520;10.248;2024-02-21T15:05:06;12.60;;;4.53;;